createdAt,value
2022-12-26T00:01:57.389Z,100496.94
2022-12-26T00:04:48.871Z,100498.97
2022-12-26T00:07:15.171Z,100499.09
2022-12-26T00:09:44.360Z,100493.63
2022-12-26T00:12:12.727Z,100484.41
2022-12-26T00:14:41.262Z,100496.53
2022-12-26T00:17:09.661Z,100488.88
2022-12-26T00:19:37.761Z,100486.31
2022-12-26T00:22:05.892Z,100477.78
2022-12-26T00:24:34.550Z,100477.91
2022-12-26T00:27:02.597Z,100469.22
2022-12-26T00:29:30.782Z,100476.97
2022-12-26T00:31:59.187Z,100468.47
2022-12-26T00:34:27.400Z,100468.09
2022-12-26T00:36:55.614Z,100471.28
2022-12-26T00:39:24.011Z,100489.41
2022-12-26T00:41:52.042Z,100490.78
2022-12-26T00:44:20.633Z,100489.34
2022-12-26T00:46:48.981Z,100518.63
2022-12-26T00:49:17.195Z,100508.56
2022-12-26T00:51:45.235Z,100503.72
2022-12-26T00:54:13.639Z,100495.13
2022-12-26T00:56:41.786Z,100488.41
2022-12-26T00:59:10.180Z,100492.34
2022-12-26T01:01:39.035Z,100485.53
2022-12-26T01:04:07.545Z,100484.09
2022-12-26T01:06:35.661Z,100460.06
2022-12-26T01:09:04.063Z,100456.25
2022-12-26T01:11:41.477Z,100458.84
2022-12-26T01:14:15.921Z,100477.75
2022-12-26T01:16:45.578Z,100484.94
2022-12-26T01:19:14.248Z,100479.94
2022-12-26T01:21:43.270Z,100471.47
2022-12-26T01:24:18.473Z,100476.00
2022-12-26T01:26:47.891Z,100480.47
2022-12-26T01:29:16.066Z,100487.59
2022-12-26T01:31:44.710Z,100483.28
2022-12-26T01:34:13.130Z,100478.41
2022-12-26T01:36:41.301Z,100467.63
2022-12-26T01:39:09.794Z,100472.62
2022-12-26T01:41:38.323Z,100466.72
2022-12-26T01:44:27.808Z,100461.72
2022-12-26T01:46:56.190Z,100464.31
2022-12-26T01:49:40.543Z,100458.22
2022-12-26T01:52:18.158Z,100448.06
2022-12-26T01:54:51.650Z,100453.53
2022-12-26T01:57:26.589Z,100450.25
2022-12-26T01:59:57.461Z,100447.84
2022-12-26T02:02:28.602Z,100450.53
2022-12-26T02:05:16.548Z,100446.22
2022-12-26T02:07:46.492Z,100449.94
2022-12-26T02:10:23.631Z,100455.28
2022-12-26T02:12:51.834Z,100449.41
2022-12-26T02:15:20.287Z,100445.16
2022-12-26T02:17:48.778Z,100445.47
2022-12-26T02:20:33.785Z,100456.00
2022-12-26T02:23:05.119Z,100454.56
2022-12-26T02:25:43.485Z,100454.66
2022-12-26T02:28:31.749Z,100446.06
2022-12-26T02:31:14.981Z,100428.25
2022-12-26T02:34:01.271Z,100406.53
2022-12-26T02:36:56.535Z,100391.12
2022-12-26T02:39:46.918Z,100393.72
2022-12-26T02:42:40.742Z,100407.97
2022-12-26T02:45:40.914Z,100407.28
2022-12-26T02:49:00.034Z,100403.94
2022-12-26T02:52:23.371Z,100419.84
2022-12-26T02:55:24.744Z,100424.78
2022-12-26T02:58:23.021Z,100430.16
2022-12-26T03:01:20.071Z,100418.53
2022-12-26T03:04:10.098Z,100409.87
2022-12-26T03:06:58.736Z,100409.56
2022-12-26T03:09:50.195Z,100423.22
2022-12-26T03:12:40.155Z,100423.47
2022-12-26T03:15:13.319Z,100417.84
2022-12-26T03:17:44.802Z,100417.97
2022-12-26T03:20:20.448Z,100418.62
2022-12-26T03:22:56.837Z,100413.31
2022-12-26T03:26:11.219Z,100422.44
2022-12-26T03:28:41.400Z,100429.41
2022-12-26T03:31:14.811Z,100426.16
2022-12-26T03:34:04.591Z,100421.09
2022-12-26T03:36:55.117Z,100421.56
2022-12-26T03:39:57.490Z,100416.13
2022-12-26T03:43:01.702Z,100428.00
2022-12-26T03:45:54.792Z,100432.88
2022-12-26T03:49:11.253Z,100420.97
2022-12-26T03:52:05.935Z,100437.84
2022-12-26T03:55:02.328Z,100417.94
2022-12-26T03:57:57.702Z,100429.28
2022-12-26T04:00:46.276Z,100446.44
2022-12-26T04:03:34.856Z,100454.25
2022-12-26T04:06:24.606Z,100439.06
2022-12-26T04:09:21.270Z,100441.72
2022-12-26T04:12:08.914Z,100443.00
2022-12-26T04:15:13.984Z,100450.94
2022-12-26T04:18:20.895Z,100446.50
2022-12-26T04:21:34.300Z,100439.09
2022-12-26T04:24:44.878Z,100427.66
2022-12-26T04:27:38.185Z,100437.16
2022-12-26T04:30:25.925Z,100427.06
2022-12-26T04:33:20.053Z,100437.37
2022-12-26T04:36:18.105Z,100439.00
2022-12-26T04:39:16.218Z,100440.13
2022-12-26T04:42:05.844Z,100429.12
2022-12-26T04:44:36.152Z,100429.66
2022-12-26T04:47:04.356Z,100424.25
2022-12-26T04:50:01.363Z,100423.53
2022-12-26T04:52:50.403Z,100425.59
2022-12-26T04:55:19.003Z,100419.59
2022-12-26T04:57:47.751Z,100415.66
2022-12-26T05:00:16.267Z,100415.75
2022-12-26T05:03:02.818Z,100416.91
2022-12-26T05:06:05.418Z,100415.28
2022-12-26T05:09:10.406Z,100427.13
2022-12-26T05:11:40.121Z,100418.31
2022-12-26T05:14:08.197Z,100420.59
2022-12-26T05:16:55.217Z,100410.53
2022-12-26T05:19:42.423Z,100418.81
2022-12-26T05:22:30.711Z,100412.41
2022-12-26T05:25:17.677Z,100408.25
2022-12-26T05:28:04.572Z,100415.53
2022-12-26T05:30:33.304Z,100398.28
2022-12-26T05:33:19.983Z,100392.69
2022-12-26T05:35:48.577Z,100415.53
2022-12-26T05:38:16.809Z,100403.19
2022-12-26T05:40:44.898Z,100408.34
2022-12-26T05:43:13.333Z,100408.06
2022-12-26T05:45:41.524Z,100409.72
2022-12-26T05:48:09.835Z,100401.06
2022-12-26T05:50:38.723Z,100412.41
2022-12-26T05:53:06.811Z,100409.53
2022-12-26T05:55:35.242Z,100409.25
2022-12-26T05:58:04.013Z,100399.41
2022-12-26T06:00:32.773Z,100401.50
2022-12-26T06:03:02.785Z,100409.87
2022-12-26T06:05:31.217Z,100402.34
2022-12-26T06:07:59.526Z,100407.94
2022-12-26T06:10:29.809Z,100406.28
2022-12-26T06:12:59.936Z,100400.28
2022-12-26T06:15:28.259Z,100404.50
2022-12-26T06:17:56.852Z,100402.69
2022-12-26T06:20:25.054Z,100400.28
2022-12-26T06:22:53.667Z,100402.22
2022-12-26T06:25:22.125Z,100395.84
2022-12-26T06:27:50.265Z,100396.06
2022-12-26T06:30:18.947Z,100387.66
2022-12-26T06:32:47.261Z,100378.19
2022-12-26T06:35:15.577Z,100397.81
2022-12-26T06:37:43.989Z,100391.81
2022-12-26T06:40:12.371Z,100399.34
2022-12-26T06:42:40.746Z,100387.38
2022-12-26T06:45:09.771Z,100385.94
2022-12-26T06:47:38.877Z,100380.97
2022-12-26T06:50:07.310Z,100391.28
2022-12-26T06:52:36.182Z,100402.34
2022-12-26T06:55:05.047Z,100395.31
2022-12-26T06:57:33.145Z,100391.00
2022-12-26T07:00:01.599Z,100405.94
2022-12-26T07:02:30.287Z,100407.50
2022-12-26T07:04:58.543Z,100397.56
2022-12-26T07:07:27.119Z,100396.53
2022-12-26T07:09:55.344Z,100403.88
2022-12-26T07:12:23.476Z,100409.28
2022-12-26T07:14:53.435Z,100411.56
2022-12-26T07:17:23.618Z,100407.97
2022-12-26T07:19:52.423Z,100419.03
2022-12-26T07:22:20.485Z,100431.75
2022-12-26T07:24:48.662Z,100411.09
2022-12-26T07:27:17.058Z,100423.25
2022-12-26T07:29:46.497Z,100425.12
2022-12-26T07:32:14.776Z,100435.25
2022-12-26T07:34:43.488Z,100441.88
2022-12-26T07:37:11.505Z,100431.34
2022-12-26T07:39:39.547Z,100443.13
2022-12-26T07:42:08.727Z,100429.41
2022-12-26T07:44:38.762Z,100431.75
2022-12-26T07:47:07.025Z,100424.72
2022-12-26T07:49:35.395Z,100421.78
2022-12-26T07:52:04.216Z,100434.81
2022-12-26T07:54:32.586Z,100433.06
2022-12-26T07:57:22.359Z,100419.91
2022-12-26T07:59:53.274Z,100425.91
2022-12-26T08:02:23.483Z,100414.47
2022-12-26T08:04:52.556Z,100428.53
2022-12-26T08:07:20.699Z,100432.03
2022-12-26T08:09:48.790Z,100436.16
2022-12-26T08:12:21.490Z,100437.81
2022-12-26T08:14:50.520Z,100452.31
2022-12-26T08:17:19.077Z,100450.37
2022-12-26T08:19:47.276Z,100444.56
2022-12-26T08:22:15.547Z,100462.09
2022-12-26T08:24:43.969Z,100449.94
2022-12-26T08:27:12.188Z,100452.00
2022-12-26T08:29:40.365Z,100445.00
2022-12-26T08:32:08.703Z,100449.31
2022-12-26T08:34:37.020Z,100467.25
2022-12-26T08:37:05.199Z,100466.81
2022-12-26T08:39:33.743Z,100470.25
2022-12-26T08:42:01.935Z,100465.53
2022-12-26T08:44:30.079Z,100458.94
2022-12-26T08:46:58.606Z,100468.00
2022-12-26T08:49:26.786Z,100460.78
2022-12-26T08:51:54.888Z,100459.72
2022-12-26T08:54:23.371Z,100473.94
2022-12-26T08:56:51.631Z,100478.44
2022-12-26T08:59:19.943Z,100473.53
2022-12-26T09:01:48.940Z,100477.97
2022-12-26T09:04:17.140Z,100478.59
2022-12-26T09:06:45.221Z,100482.62
2022-12-26T09:09:13.726Z,100474.50
2022-12-26T09:11:42.602Z,100470.78
2022-12-26T09:14:11.548Z,100479.66
2022-12-26T09:16:49.287Z,100472.53
2022-12-26T09:19:20.439Z,100469.09
2022-12-26T09:22:10.123Z,100462.44
2022-12-26T09:24:38.260Z,100460.13
2022-12-26T09:27:06.669Z,100454.53
2022-12-26T09:29:34.836Z,100465.38
2022-12-26T09:32:02.988Z,100476.22
2022-12-26T09:34:31.531Z,100477.69
2022-12-26T09:36:59.652Z,100473.44
2022-12-26T09:39:28.149Z,100475.41
2022-12-26T09:42:09.024Z,100476.78
2022-12-26T09:44:49.015Z,100480.31
2022-12-26T09:47:26.543Z,100475.53
2022-12-26T09:50:04.216Z,100485.34
2022-12-26T09:52:41.836Z,100486.69
2022-12-26T09:55:26.166Z,100474.31
2022-12-26T09:57:59.170Z,100465.75
2022-12-26T10:00:33.720Z,100473.06
2022-12-26T10:03:02.192Z,100482.38
2022-12-26T10:05:38.638Z,100486.00
2022-12-26T10:08:45.827Z,100484.53
2022-12-26T10:11:35.185Z,100486.31
2022-12-26T10:14:49.443Z,100477.09
2022-12-26T10:17:42.585Z,100466.66
2022-12-26T10:20:40.024Z,100470.31
2022-12-26T10:23:27.382Z,100459.66
2022-12-26T10:25:59.631Z,100462.53
2022-12-26T10:28:29.917Z,100454.91
2022-12-26T10:31:02.907Z,100458.94
2022-12-26T10:33:57.614Z,100452.31
2022-12-26T10:36:37.246Z,100432.38
2022-12-26T10:39:30.831Z,100436.16
2022-12-26T10:42:03.785Z,100434.41
2022-12-26T10:44:31.941Z,100430.28
2022-12-26T10:47:21.799Z,100427.69
2022-12-26T10:49:50.085Z,100425.09
2022-12-26T10:52:22.918Z,100425.62
2022-12-26T10:55:28.144Z,100427.50
2022-12-26T10:57:48.588Z,100421.38
2022-12-26T11:00:27.880Z,100413.19
2022-12-26T11:03:13.106Z,100418.06
2022-12-26T11:06:08.101Z,100408.56
2022-12-26T11:08:49.300Z,100410.19
2022-12-26T11:11:26.810Z,100402.97
2022-12-26T11:14:02.270Z,100406.47
2022-12-26T11:16:35.598Z,100407.78
2022-12-26T11:19:05.049Z,100398.22
2022-12-26T11:21:34.024Z,100388.59
2022-12-26T11:24:20.682Z,100389.19
2022-12-26T11:26:49.157Z,100383.09
2022-12-26T11:29:24.520Z,100375.00
2022-12-26T11:31:58.836Z,100378.91
2022-12-26T11:34:47.746Z,100372.72
2022-12-26T11:37:30.201Z,100370.00
2022-12-26T11:39:59.121Z,100370.62
2022-12-26T11:42:27.859Z,100385.97
2022-12-26T11:44:59.794Z,100382.69
2022-12-26T11:47:30.401Z,100381.03
2022-12-26T11:50:02.468Z,100374.59
2022-12-26T11:52:46.039Z,100372.63
2022-12-26T11:55:29.655Z,100378.50
2022-12-26T11:58:10.321Z,100367.62
2022-12-26T12:00:44.806Z,100365.53
2022-12-26T12:03:21.622Z,100352.56
2022-12-26T12:05:50.047Z,100368.91
2022-12-26T12:08:32.500Z,100357.38
2022-12-26T12:11:31.196Z,100356.63
2022-12-26T12:14:01.441Z,100350.56
2022-12-26T12:17:00.122Z,100357.22
2022-12-26T12:19:39.639Z,100353.75
2022-12-26T12:22:33.663Z,100356.19
2022-12-26T12:25:40.347Z,100364.38
2022-12-26T12:28:26.830Z,100362.84
2022-12-26T12:31:16.568Z,100360.69
2022-12-26T12:33:49.682Z,100350.00
2022-12-26T12:36:22.233Z,100353.72
2022-12-26T12:39:17.015Z,100358.84
2022-12-26T12:41:59.951Z,100345.50
2022-12-26T12:44:54.116Z,100350.06
2022-12-26T12:47:44.844Z,100354.31
2022-12-26T12:50:28.711Z,100359.41
2022-12-26T12:53:34.225Z,100346.34
2022-12-26T12:56:11.444Z,100361.47
2022-12-26T12:59:02.563Z,100351.22
2022-12-26T13:01:40.225Z,100348.06
2022-12-26T13:04:21.719Z,100357.34
2022-12-26T13:06:58.747Z,100353.53
2022-12-26T13:09:34.492Z,100351.34
2022-12-26T13:12:07.251Z,100341.81
2022-12-26T13:14:42.241Z,100356.13
2022-12-26T13:17:25.274Z,100346.59
2022-12-26T13:20:02.967Z,100343.94
2022-12-26T13:22:55.481Z,100346.53
2022-12-26T13:25:28.163Z,100344.25
2022-12-26T13:28:09.558Z,100352.87
2022-12-26T13:30:39.508Z,100359.31
2022-12-26T13:33:14.675Z,100354.56
2022-12-26T13:35:58.745Z,100359.13
2022-12-26T13:38:58.671Z,100360.13
2022-12-26T13:41:47.063Z,100359.47
2022-12-26T13:44:21.199Z,100365.25
2022-12-26T13:46:49.612Z,100362.00
2022-12-26T13:49:38.769Z,100362.94
2022-12-26T13:52:14.896Z,100364.09
2022-12-26T13:54:50.329Z,100359.97
2022-12-26T13:57:24.832Z,100356.66
2022-12-26T14:00:07.599Z,100352.87
2022-12-26T14:03:20.180Z,100361.03
2022-12-26T14:05:57.883Z,100367.75
2022-12-26T14:08:41.441Z,100365.47
2022-12-26T14:11:37.079Z,100364.66
2022-12-26T14:14:40.698Z,100357.00
2022-12-26T14:17:26.560Z,100361.72
2022-12-26T14:20:02.876Z,100379.41
2022-12-26T14:22:38.645Z,100374.16
2022-12-26T14:25:24.516Z,100377.59
2022-12-26T14:28:22.546Z,100368.16
2022-12-26T14:31:22.227Z,100373.34
2022-12-26T14:34:06.911Z,100366.09
2022-12-26T14:37:27.517Z,100370.62
2022-12-26T14:40:16.220Z,100374.72
2022-12-26T14:43:12.030Z,100368.22
2022-12-26T14:45:46.322Z,100369.47
2022-12-26T14:48:17.941Z,100375.22
2022-12-26T14:50:47.962Z,100376.44
2022-12-26T14:53:27.342Z,100359.41
2022-12-26T14:56:10.681Z,100377.81
2022-12-26T14:58:48.171Z,100373.38
2022-12-26T15:01:18.505Z,100365.22
2022-12-26T15:04:23.933Z,100364.69
2022-12-26T15:07:20.584Z,100367.06
2022-12-26T15:10:26.670Z,100367.41
2022-12-26T15:13:17.017Z,100356.13
2022-12-26T15:15:51.881Z,100346.72
2022-12-26T15:18:53.123Z,100339.75
2022-12-26T15:21:44.697Z,100352.25
2022-12-26T15:25:17.085Z,100341.72
2022-12-26T15:27:47.758Z,100341.25
2022-12-26T15:30:26.989Z,100344.12
2022-12-26T15:33:17.177Z,100329.75
2022-12-26T15:36:03.671Z,100320.25
2022-12-26T15:38:58.517Z,100330.59
2022-12-26T15:41:30.801Z,100333.69
2022-12-26T15:44:15.297Z,100331.03
2022-12-26T15:47:08.406Z,100341.87
2022-12-26T15:49:52.960Z,100337.31
2022-12-26T15:52:34.207Z,100333.19
2022-12-26T15:55:43.215Z,100331.84
2022-12-26T15:58:42.627Z,100331.22
2022-12-26T16:01:12.238Z,100329.78
2022-12-26T16:04:02.825Z,100331.72
2022-12-26T16:07:06.265Z,100332.56
2022-12-26T16:09:46.895Z,100329.94
2022-12-26T16:12:27.955Z,100326.47
2022-12-26T16:15:16.136Z,100316.53
2022-12-26T16:17:44.782Z,100325.53
2022-12-26T16:20:42.012Z,100321.22
2022-12-26T16:23:31.703Z,100328.00
2022-12-26T16:26:01.207Z,100326.28
2022-12-26T16:28:41.466Z,100326.13
2022-12-26T16:31:17.324Z,100321.13
2022-12-26T16:33:45.697Z,100313.38
2022-12-26T16:36:20.800Z,100311.44
2022-12-26T16:38:51.342Z,100304.91
2022-12-26T16:41:24.164Z,100313.66
2022-12-26T16:43:54.638Z,100319.06
2022-12-26T16:46:27.315Z,100313.25
2022-12-26T16:48:59.727Z,100311.37
2022-12-26T16:51:46.172Z,100324.56
2022-12-26T16:54:42.399Z,100321.19
2022-12-26T16:57:19.932Z,100324.03
2022-12-26T16:59:57.273Z,100319.50
2022-12-26T17:02:35.961Z,100318.50
2022-12-26T17:05:08.475Z,100320.75
2022-12-26T17:07:43.286Z,100325.91
2022-12-26T17:10:24.513Z,100319.06
2022-12-26T17:12:55.527Z,100329.19
2022-12-26T17:15:27.354Z,100329.53
2022-12-26T17:17:57.060Z,100328.28
2022-12-26T17:20:25.243Z,100324.69
2022-12-26T17:22:55.081Z,100320.75
2022-12-26T17:25:26.435Z,100320.19
2022-12-26T17:28:22.352Z,100316.69
2022-12-26T17:30:53.572Z,100318.37
2022-12-26T17:33:29.072Z,100319.22
2022-12-26T17:36:52.564Z,100304.63
2022-12-26T17:38:51.995Z,100306.38
2022-12-26T17:41:20.815Z,100302.28
2022-12-26T17:43:50.336Z,100301.25
2022-12-26T17:46:18.721Z,100312.34
2022-12-26T17:48:47.848Z,100287.81
2022-12-26T17:51:18.200Z,100303.84
2022-12-26T17:53:50.402Z,100310.69
2022-12-26T17:56:25.777Z,100304.47
2022-12-26T17:58:55.679Z,100303.56
2022-12-26T18:01:23.897Z,100299.09
2022-12-26T18:03:52.974Z,100302.50
2022-12-26T18:06:22.037Z,100295.72
2022-12-26T18:08:50.369Z,100302.50
2022-12-26T18:11:19.400Z,100300.12
2022-12-26T18:13:47.785Z,100281.63
2022-12-26T18:16:18.509Z,100278.63
2022-12-26T18:18:47.756Z,100274.00
2022-12-26T18:21:16.393Z,100280.72
2022-12-26T18:23:44.987Z,100274.00
2022-12-26T18:26:20.721Z,100271.50
2022-12-26T18:28:50.430Z,100262.84
2022-12-26T18:31:19.715Z,100270.59
2022-12-26T18:33:48.031Z,100265.13
2022-12-26T18:36:17.860Z,100276.69
2022-12-26T18:38:46.616Z,100269.34
2022-12-26T18:41:20.081Z,100260.97
2022-12-26T18:43:48.554Z,100254.25
2022-12-26T18:46:21.933Z,100251.97
2022-12-26T18:48:53.822Z,100255.78
2022-12-26T18:51:24.386Z,100251.34
2022-12-26T18:53:53.396Z,100246.19
2022-12-26T18:56:22.998Z,100263.53
2022-12-26T18:58:57.511Z,100240.63
2022-12-26T19:01:27.203Z,100235.84
2022-12-26T19:03:56.033Z,100236.41
2022-12-26T19:06:27.786Z,100252.31
2022-12-26T19:08:56.601Z,100237.34
2022-12-26T19:11:25.231Z,100253.13
2022-12-26T19:13:54.235Z,100248.28
2022-12-26T19:16:23.307Z,100246.03
2022-12-26T19:18:51.540Z,100258.19
2022-12-26T19:21:19.592Z,100261.97
2022-12-26T19:23:48.481Z,100255.06
2022-12-26T19:26:18.593Z,100257.47
2022-12-26T19:28:52.601Z,100241.66
2022-12-26T19:31:22.693Z,100250.09
2022-12-26T19:33:53.071Z,100247.84
2022-12-26T19:36:21.666Z,100257.75
2022-12-26T19:38:49.741Z,100257.94
2022-12-26T19:41:17.820Z,100252.06
2022-12-26T19:43:46.646Z,100260.84
2022-12-26T19:46:15.788Z,100260.66
2022-12-26T19:48:44.316Z,100270.31
2022-12-26T19:51:15.405Z,100255.84
2022-12-26T19:53:48.517Z,100274.34
2022-12-26T19:56:21.588Z,100275.63
2022-12-26T19:58:56.195Z,100295.75
2022-12-26T20:01:28.045Z,100297.78
2022-12-26T20:03:58.884Z,100285.69
2022-12-26T20:06:29.544Z,100301.84
2022-12-26T20:09:00.664Z,100295.81
2022-12-26T20:11:32.324Z,100286.97
2022-12-26T20:14:02.344Z,100282.84
2022-12-26T20:17:03.974Z,100288.00
2022-12-26T20:19:27.231Z,100287.25
2022-12-26T20:21:55.494Z,100287.66
2022-12-26T20:24:25.937Z,100288.63
2022-12-26T20:26:54.785Z,100285.72
2022-12-26T20:29:23.236Z,100295.38
2022-12-26T20:31:55.103Z,100285.78
2022-12-26T20:34:23.836Z,100277.66
2022-12-26T20:36:52.721Z,100272.09
2022-12-26T20:39:22.743Z,100276.34
2022-12-26T20:41:51.131Z,100266.84
2022-12-26T20:44:19.885Z,100268.06
2022-12-26T20:46:48.209Z,100252.06
2022-12-26T20:49:16.800Z,100253.00
2022-12-26T20:51:46.094Z,100257.03
2022-12-26T20:54:15.582Z,100258.19
2022-12-26T20:56:44.344Z,100251.09
2022-12-26T20:59:12.998Z,100252.44
2022-12-26T21:01:41.689Z,100248.53
2022-12-26T21:04:17.832Z,100251.09
2022-12-26T21:06:47.599Z,100259.47
2022-12-26T21:09:16.703Z,100263.63
2022-12-26T21:11:45.682Z,100265.88
2022-12-26T21:14:17.189Z,100273.63
2022-12-26T21:16:51.446Z,100292.41
2022-12-26T21:19:21.996Z,100297.38
2022-12-26T21:21:53.882Z,100302.56
2022-12-26T21:24:34.624Z,100294.75
2022-12-26T21:27:04.221Z,100275.56
2022-12-26T21:29:35.147Z,100278.03
2022-12-26T21:32:04.904Z,100284.31
2022-12-26T21:34:34.552Z,100277.13
2022-12-26T21:37:34.775Z,100257.50
2022-12-26T21:40:03.670Z,100259.25
2022-12-26T21:42:31.860Z,100263.56
2022-12-26T21:45:00.181Z,100273.78
2022-12-26T21:47:28.823Z,100274.31
2022-12-26T21:49:56.949Z,100265.34
2022-12-26T21:52:25.207Z,100266.91
2022-12-26T21:55:12.033Z,100264.88
2022-12-26T21:57:40.400Z,100259.06
2022-12-26T22:00:09.708Z,100269.28
2022-12-26T22:02:58.759Z,100264.75
2022-12-26T22:05:28.666Z,100264.88
2022-12-26T22:08:00.175Z,100261.03
2022-12-26T22:10:49.346Z,100279.75
2022-12-26T22:13:19.561Z,100265.91
2022-12-26T22:16:04.916Z,100270.25
2022-12-26T22:18:42.721Z,100270.44
2022-12-26T22:21:15.237Z,100268.78
2022-12-26T22:23:44.163Z,100265.72
2022-12-26T22:26:14.450Z,100263.72
2022-12-26T22:28:43.393Z,100257.41
2022-12-26T22:31:22.684Z,100254.66
2022-12-26T22:33:56.149Z,100254.31
2022-12-26T22:36:25.621Z,100257.53
2022-12-26T22:38:53.719Z,100257.66
2022-12-26T22:41:22.156Z,100244.50
2022-12-26T22:43:50.874Z,100248.53
2022-12-26T22:46:19.429Z,100253.63
2022-12-26T22:48:47.851Z,100262.72
2022-12-26T22:51:21.603Z,100264.34
2022-12-26T22:53:52.959Z,100256.38
2022-12-26T22:56:21.483Z,100256.09
2022-12-26T22:58:54.838Z,100257.53
2022-12-26T23:01:23.748Z,100278.31
2022-12-26T23:03:51.974Z,100278.59
2022-12-26T23:06:27.708Z,100282.00
2022-12-26T23:08:58.023Z,100281.47
2022-12-26T23:11:34.446Z,100294.59
2022-12-26T23:14:08.168Z,100300.41
2022-12-26T23:16:39.826Z,100294.59
2022-12-26T23:19:29.561Z,100308.84
2022-12-26T23:22:01.124Z,100310.69
2022-12-26T23:24:32.143Z,100290.00
2022-12-26T23:27:22.344Z,100303.25
2022-12-26T23:30:10.512Z,100301.19
2022-12-26T23:32:40.942Z,100296.97
2022-12-26T23:35:11.064Z,100300.56
2022-12-26T23:37:40.513Z,100305.72
2022-12-26T23:40:10.746Z,100300.34
2022-12-26T23:42:39.527Z,100289.94
2022-12-26T23:45:08.755Z,100291.28
2022-12-26T23:47:38.413Z,100305.47
2022-12-26T23:50:09.707Z,100309.50
2022-12-26T23:52:38.150Z,100300.09
2022-12-26T23:55:07.127Z,100307.84
2022-12-26T23:57:35.248Z,100313.00
